Smithland, IA (51056)

3:46 PM CDT on July 25, 2014 (GMT -0500)
Castana (KIACASTA3) Elev 1099 ft | 42.08 °N, 95.89 °W | Change Station

Current weather conditions updated 1 second ago

Partly Cloudy
Partly Cloudy
86.2 °F
Feels Like 95 °F
N
0.9
Wind Variable Wind from ESE
Gusts 2.0 mph

Today is forecast to be Much Warmer than yesterday. Showers and thunderstorms late.

Today
High -- | Low -- °F
--% Chance of Precip.
Yesterday
High -- | Low -- °F
Precip. -- in
6:09 AM 8:50 PM
Waning Crescent, 1% visible
Pressure 29.73 in
Visibility 10.0 miles
Clouds Scattered Clouds 2700 ft
Heat Index 95 °F
Dew Point 75 °F
Humidity 69%
Rainfall 0.00 in
Snow Depth Not available.
UV 8 out of 12
Pollen 4.80 out of 12
Air Quality Not available.
Flu Activity Not available.
METAR KSUX 251952Z 21004KT 10SM SCT027 30/22 A2976 RMK AO2 SLP067 T03000222

More Conditions Fewer Conditions

Pressure 29.73 in
Visibility 10.0 miles
Clouds Scattered Clouds 2700 ft
Heat Index 95 °F
Dew Point 75 °F
Humidity 69%
Rainfall 0.00 in
Snow Depth Not available.
UV 8 out of 12
Pollen 4.80 out of 12
Air Quality Not available.
Flu Activity Not available.
METAR KSUX 251952Z 21004KT 10SM SCT027 30/22 A2976 RMK AO2 SLP067 T03000222

More Conditions Fewer Conditions

10-Day Weather Forecast

Almanac

Astronomy

Jul. 25, 2014 Rise Set
Actual Time 6:09 AM CDT 8:50 PM CDT
Civil Twilight 5:37 AM CDT 9:22 PM CDT
Nautical Twilight 4:56 AM CDT 10:03 PM CDT
Astronomical Twilight 4:09 AM CDT 10:49 PM CDT
Moon 5:10 AM CDT 7:46 PM CDT
Length of Visible Light 15h 45m
Length of Day
14h 40m
Tomorrow will be 1m 57s shorter.
Waning Crescent, 1% of the Moon is Illuminated
Today
Waning Crescent
Jul 26
New
Aug 3
First Quarter
Aug 10
Full
Aug 17
Last Quarter

Today's Extremes

State Highs State Lows

Community

WunderPhotos

Upload Photos

1,737,396 photos uploaded!

Nearby

Snow Depth

Station Depth Elevation
No new snow has been reported.

Earthquake Activity

City Distance Mag. Time & Date
No recent earthquake activity has been reported nearby.
Minimum magnitude displayed is 2.5.

Coastal Water Temperatures

Place Temperature
No Stations Reporting

Nearby Weather Stations

Station Location Temp. Heat Index Dew Point Humidity Wind Precip. Elev Updated Type
HADS WEST FORK DITCH AT HORNICK IA, Rodney, IA 86 °F 83 °F - - North  at  - 0.00 in / hr 1045 ft 3:00 PM CDT MADIS
Castana, Castana, IA 86.2 °F 95 °F 75 °F 69% ESE  at  0.9 mph 0.00 in / hr 1099 ft 3:46 PM CDT Rapid Fire
The Danbury Review, Danbury, IA 83.3 °F 89 °F 72 °F 69% SSE  at  0.0 mph 0.00 in / hr 1162 ft 3:45 PM CDT Normal
MesoWest SHAGBARK HILLS , Correctionville, IA 79 °F 81 °F 67 °F 67% South  at  4 mph 0.00 in / hr 1399 ft 2:00 PM CDT MADIS
MesoWest SALIX , Salix, IA 80 °F 78 °F - - North  at  - 0.00 in / hr 1077 ft 1:00 PM CDT MADIS
MesoWest ONAWA , Blencoe, IA 90 °F 87 °F - - North  at  - 0.00 in / hr 1048 ft 1:55 PM CDT MADIS

Show More Stations Show Fewer Stations